sensor_id;sensor_type;location;lat;lon;timestamp;pressure;altitude;pressure_sealevel;temperature;humidity
10097;BME280;5087;42.662;23.466;2022-11-10T00:02:43;96065.50;;;4.47;100.00
10097;BME280;5087;42.662;23.466;2022-11-10T00:05:29;96085.94;;;4.48;100.00
10097;BME280;5087;42.662;23.466;2022-11-10T00:08:15;96098.53;;;4.42;100.00
10097;BME280;5087;42.662;23.466;2022-11-10T00:11:03;96066.75;;;4.29;100.00
10097;BME280;5087;42.662;23.466;2022-11-10T00:13:49;96075.66;;;4.35;100.00
10097;BME280;5087;42.662;23.466;2022-11-10T00:16:55;96062.41;;;4.23;100.00
10097;BME280;5087;42.662;23.466;2022-11-10T00:19:47;96073.16;;;4.23;100.00
10097;BME280;5087;42.662;23.466;2022-11-10T00:22:33;96076.94;;;4.27;100.00
10097;BME280;5087;42.662;23.466;2022-11-10T00:25:23;96043.72;;;4.01;100.00
10097;BME280;5087;42.662;23.466;2022-11-10T00:28:09;96079.88;;;4.20;100.00
10097;BME280;5087;42.662;23.466;2022-11-10T00:30:55;96081.69;;;4.09;100.00
10097;BME280;5087;42.662;23.466;2022-11-10T00:33:43;96077.06;;;4.05;100.00
10097;BME280;5087;42.662;23.466;2022-11-10T00:36:30;96082.66;;;3.98;100.00
10097;BME280;5087;42.662;23.466;2022-11-10T00:39:16;96063.72;;;3.83;100.00
10097;BME280;5087;42.662;23.466;2022-11-10T00:42:02;96064.47;;;3.73;100.00
10097;BME280;5087;42.662;23.466;2022-11-10T00:44:49;96080.97;;;3.87;100.00
10097;BME280;5087;42.662;23.466;2022-11-10T00:47:34;96045.09;;;3.71;100.00
10097;BME280;5087;42.662;23.466;2022-11-10T00:50:25;96076.97;;;3.94;100.00
10097;BME280;5087;42.662;23.466;2022-11-10T00:53:11;96060.38;;;4.03;100.00
10097;BME280;5087;42.662;23.466;2022-11-10T00:55:57;96043.38;;;3.92;100.00
10097;BME280;5087;42.662;23.466;2022-11-10T00:58:43;96048.91;;;4.12;100.00
10097;BME280;5087;42.662;23.466;2022-11-10T01:01:29;96060.00;;;4.26;100.00
10097;BME280;5087;42.662;23.466;2022-11-10T01:04:15;96050.88;;;4.27;100.00
10097;BME280;5087;42.662;23.466;2022-11-10T01:07:02;96060.56;;;4.28;100.00
10097;BME280;5087;42.662;23.466;2022-11-10T01:09:47;96066.25;;;4.32;100.00
10097;BME280;5087;42.662;23.466;2022-11-10T01:12:33;96042.78;;;4.22;100.00
10097;BME280;5087;42.662;23.466;2022-11-10T01:15:21;96060.00;;;4.26;100.00
10097;BME280;5087;42.662;23.466;2022-11-10T01:18:07;96057.31;;;4.26;100.00
10097;BME280;5087;42.662;23.466;2022-11-10T01:21:05;96050.03;;;4.22;100.00
10097;BME280;5087;42.662;23.466;2022-11-10T01:23:56;96061.28;;;4.19;100.00
10097;BME280;5087;42.662;23.466;2022-11-10T01:26:42;96008.91;;;3.78;100.00
10097;BME280;5087;42.662;23.466;2022-11-10T01:29:27;96056.38;;;4.05;100.00
10097;BME280;5087;42.662;23.466;2022-11-10T01:32:13;96053.66;;;4.00;100.00
10097;BME280;5087;42.662;23.466;2022-11-10T01:34:59;96057.63;;;3.92;100.00
10097;BME280;5087;42.662;23.466;2022-11-10T01:37:45;96049.81;;;3.91;100.00
10097;BME280;5087;42.662;23.466;2022-11-10T01:40:33;96032.50;;;3.71;100.00
10097;BME280;5087;42.662;23.466;2022-11-10T01:43:18;96051.28;;;3.71;100.00
10097;BME280;5087;42.662;23.466;2022-11-10T01:46:06;96035.44;;;3.42;100.00
10097;BME280;5087;42.662;23.466;2022-11-10T01:48:56;96048.06;;;3.42;100.00
10097;BME280;5087;42.662;23.466;2022-11-10T01:51:47;96038.09;;;3.37;100.00
10097;BME280;5087;42.662;23.466;2022-11-10T01:54:38;96057.97;;;3.41;100.00
10097;BME280;5087;42.662;23.466;2022-11-10T01:57:27;96051.97;;;3.29;100.00
10097;BME280;5087;42.662;23.466;2022-11-10T02:00:13;96051.47;;;3.32;100.00
10097;BME280;5087;42.662;23.466;2022-11-10T02:03:02;96046.59;;;3.29;100.00
10097;BME280;5087;42.662;23.466;2022-11-10T02:05:50;96024.06;;;3.03;100.00
10097;BME280;5087;42.662;23.466;2022-11-10T02:08:36;96053.41;;;3.09;100.00
10097;BME280;5087;42.662;23.466;2022-11-10T02:11:23;96051.25;;;3.11;100.00
10097;BME280;5087;42.662;23.466;2022-11-10T02:14:12;96038.81;;;3.00;100.00
10097;BME280;5087;42.662;23.466;2022-11-10T02:16:58;96051.78;;;3.08;100.00
10097;BME280;5087;42.662;23.466;2022-11-10T02:19:44;96034.91;;;2.85;100.00
10097;BME280;5087;42.662;23.466;2022-11-10T02:22:32;96061.38;;;3.04;100.00
10097;BME280;5087;42.662;23.466;2022-11-10T02:25:20;96054.03;;;2.94;100.00
10097;BME280;5087;42.662;23.466;2022-11-10T02:28:06;96052.97;;;2.73;100.00
10097;BME280;5087;42.662;23.466;2022-11-10T02:30:53;96071.81;;;2.78;100.00
10097;BME280;5087;42.662;23.466;2022-11-10T02:33:39;96064.69;;;2.67;100.00
10097;BME280;5087;42.662;23.466;2022-11-10T02:36:25;96064.81;;;2.55;100.00
10097;BME280;5087;42.662;23.466;2022-11-10T02:39:13;96065.28;;;2.30;100.00
10097;BME280;5087;42.662;23.466;2022-11-10T02:41:58;96076.41;;;2.21;100.00
10097;BME280;5087;42.662;23.466;2022-11-10T02:44:45;96075.72;;;2.09;100.00
10097;BME280;5087;42.662;23.466;2022-11-10T02:47:31;96094.59;;;2.19;100.00
10097;BME280;5087;42.662;23.466;2022-11-10T02:50:16;96090.44;;;2.29;100.00
10097;BME280;5087;42.662;23.466;2022-11-10T02:53:03;96075.69;;;2.26;100.00
10097;BME280;5087;42.662;23.466;2022-11-10T02:55:52;96086.09;;;2.22;100.00
10097;BME280;5087;42.662;23.466;2022-11-10T02:58:37;96087.72;;;2.24;100.00
10097;BME280;5087;42.662;23.466;2022-11-10T03:01:23;96084.03;;;2.30;100.00
10097;BME280;5087;42.662;23.466;2022-11-10T03:04:09;96084.63;;;2.32;100.00
10097;BME280;5087;42.662;23.466;2022-11-10T03:06:54;96084.41;;;2.38;100.00
10097;BME280;5087;42.662;23.466;2022-11-10T03:09:40;96094.91;;;2.40;100.00
10097;BME280;5087;42.662;23.466;2022-11-10T03:12:27;96077.47;;;2.20;100.00
10097;BME280;5087;42.662;23.466;2022-11-10T03:15:14;96072.44;;;2.24;100.00
10097;BME280;5087;42.662;23.466;2022-11-10T03:18:02;96098.06;;;2.37;100.00
10097;BME280;5087;42.662;23.466;2022-11-10T03:20:49;96089.88;;;2.27;100.00
10097;BME280;5087;42.662;23.466;2022-11-10T03:23:36;96092.88;;;2.30;100.00
10097;BME280;5087;42.662;23.466;2022-11-10T03:26:22;96070.50;;;2.19;100.00
10097;BME280;5087;42.662;23.466;2022-11-10T03:29:09;96106.84;;;2.32;100.00
10097;BME280;5087;42.662;23.466;2022-11-10T03:31:56;96098.13;;;2.42;100.00
10097;BME280;5087;42.662;23.466;2022-11-10T03:34:42;96087.34;;;2.37;100.00
10097;BME280;5087;42.662;23.466;2022-11-10T03:37:28;96093.75;;;2.36;100.00
10097;BME280;5087;42.662;23.466;2022-11-10T03:40:15;96097.09;;;2.43;100.00
10097;BME280;5087;42.662;23.466;2022-11-10T03:43:01;96110.66;;;2.19;100.00
10097;BME280;5087;42.662;23.466;2022-11-10T03:45:48;96103.97;;;1.83;100.00
10097;BME280;5087;42.662;23.466;2022-11-10T03:48:34;96105.34;;;1.85;100.00
10097;BME280;5087;42.662;23.466;2022-11-10T03:51:21;96104.69;;;1.78;100.00
10097;BME280;5087;42.662;23.466;2022-11-10T03:54:07;96100.03;;;1.56;100.00
10097;BME280;5087;42.662;23.466;2022-11-10T03:56:53;96112.78;;;1.83;100.00
10097;BME280;5087;42.662;23.466;2022-11-10T03:59:40;96096.47;;;1.51;100.00
10097;BME280;5087;42.662;23.466;2022-11-10T04:02:27;96113.94;;;1.41;100.00
10097;BME280;5087;42.662;23.466;2022-11-10T04:05:13;96109.34;;;1.54;100.00
10097;BME280;5087;42.662;23.466;2022-11-10T04:08:17;96123.97;;;1.63;100.00
10097;BME280;5087;42.662;23.466;2022-11-10T04:11:20;96113.19;;;1.58;100.00
10097;BME280;5087;42.662;23.466;2022-11-10T04:14:20;96097.84;;;1.53;100.00
10097;BME280;5087;42.662;23.466;2022-11-10T04:17:23;96107.16;;;1.51;100.00
10097;BME280;5087;42.662;23.466;2022-11-10T04:20:11;96113.47;;;1.45;100.00
10097;BME280;5087;42.662;23.466;2022-11-10T04:22:57;96112.03;;;1.54;100.00
10097;BME280;5087;42.662;23.466;2022-11-10T04:26:02;96116.25;;;1.67;100.00
10097;BME280;5087;42.662;23.466;2022-11-10T04:29:07;96119.97;;;1.66;100.00
10097;BME280;5087;42.662;23.466;2022-11-10T04:31:53;96111.75;;;1.67;100.00
10097;BME280;5087;42.662;23.466;2022-11-10T04:34:39;96127.81;;;1.84;100.00
10097;BME280;5087;42.662;23.466;2022-11-10T04:37:26;96134.78;;;1.85;100.00
10097;BME280;5087;42.662;23.466;2022-11-10T04:40:12;96118.19;;;1.54;100.00
10097;BME280;5087;42.662;23.466;2022-11-10T04:42:58;96116.38;;;1.43;100.00
10097;BME280;5087;42.662;23.466;2022-11-10T04:45:44;96131.13;;;1.46;100.00
10097;BME280;5087;42.662;23.466;2022-11-10T04:48:31;96127.00;;;1.38;100.00
10097;BME280;5087;42.662;23.466;2022-11-10T04:51:18;96117.22;;;1.44;100.00
10097;BME280;5087;42.662;23.466;2022-11-10T04:54:06;96091.56;;;1.31;100.00
10097;BME280;5087;42.662;23.466;2022-11-10T04:56:54;96128.72;;;1.44;100.00
10097;BME280;5087;42.662;23.466;2022-11-10T04:59:40;96132.97;;;1.57;100.00
10097;BME280;5087;42.662;23.466;2022-11-10T05:02:26;96123.94;;;1.46;100.00
10097;BME280;5087;42.662;23.466;2022-11-10T05:05:13;96122.22;;;1.40;100.00
10097;BME280;5087;42.662;23.466;2022-11-10T05:07:59;96141.91;;;1.63;100.00
10097;BME280;5087;42.662;23.466;2022-11-10T05:10:46;96099.13;;;1.34;100.00
10097;BME280;5087;42.662;23.466;2022-11-10T05:13:32;96132.22;;;1.45;100.00
10097;BME280;5087;42.662;23.466;2022-11-10T05:16:18;96137.44;;;1.39;100.00
10097;BME280;5087;42.662;23.466;2022-11-10T05:19:04;96132.25;;;1.33;100.00
10097;BME280;5087;42.662;23.466;2022-11-10T05:21:50;96126.53;;;1.41;100.00
10097;BME280;5087;42.662;23.466;2022-11-10T05:24:36;96134.59;;;1.58;100.00
10097;BME280;5087;42.662;23.466;2022-11-10T05:27:24;96153.56;;;1.56;100.00
10097;BME280;5087;42.662;23.466;2022-11-10T05:30:10;96146.97;;;1.47;100.00
10097;BME280;5087;42.662;23.466;2022-11-10T05:32:56;96143.41;;;1.58;100.00
10097;BME280;5087;42.662;23.466;2022-11-10T05:35:42;96142.81;;;1.39;100.00
10097;BME280;5087;42.662;23.466;2022-11-10T05:38:28;96140.47;;;1.14;100.00
10097;BME280;5087;42.662;23.466;2022-11-10T05:41:15;96169.16;;;1.19;100.00
10097;BME280;5087;42.662;23.466;2022-11-10T05:44:02;96148.38;;;1.09;100.00
10097;BME280;5087;42.662;23.466;2022-11-10T05:46:50;96160.13;;;1.08;100.00
10097;BME280;5087;42.662;23.466;2022-11-10T05:49:37;96151.69;;;0.87;100.00
10097;BME280;5087;42.662;23.466;2022-11-10T05:52:22;96172.22;;;0.99;100.00
10097;BME280;5087;42.662;23.466;2022-11-10T05:55:08;96174.00;;;0.81;100.00
10097;BME280;5087;42.662;23.466;2022-11-10T05:57:55;96166.34;;;0.73;100.00
10097;BME280;5087;42.662;23.466;2022-11-10T06:00:42;96189.91;;;1.00;100.00
10097;BME280;5087;42.662;23.466;2022-11-10T06:03:28;96185.84;;;0.97;100.00
10097;BME280;5087;42.662;23.466;2022-11-10T06:06:14;96193.53;;;0.93;100.00
10097;BME280;5087;42.662;23.466;2022-11-10T06:09:01;96188.97;;;0.94;100.00
10097;BME280;5087;42.662;23.466;2022-11-10T06:11:47;96188.97;;;1.06;100.00
10097;BME280;5087;42.662;23.466;2022-11-10T06:14:33;96196.97;;;1.06;100.00
10097;BME280;5087;42.662;23.466;2022-11-10T06:17:20;96205.63;;;0.84;100.00
10097;BME280;5087;42.662;23.466;2022-11-10T06:20:07;96189.81;;;0.94;100.00
10097;BME280;5087;42.662;23.466;2022-11-10T06:22:58;96205.16;;;0.99;100.00
10097;BME280;5087;42.662;23.466;2022-11-10T06:25:45;96181.47;;;0.79;100.00
10097;BME280;5087;42.662;23.466;2022-11-10T06:28:31;96214.09;;;0.93;100.00
10097;BME280;5087;42.662;23.466;2022-11-10T06:31:17;96211.88;;;1.02;100.00
10097;BME280;5087;42.662;23.466;2022-11-10T06:34:04;96219.53;;;1.10;100.00
10097;BME280;5087;42.662;23.466;2022-11-10T06:36:50;96217.91;;;1.09;100.00
10097;BME280;5087;42.662;23.466;2022-11-10T06:39:37;96219.31;;;1.12;100.00
10097;BME280;5087;42.662;23.466;2022-11-10T06:42:23;96237.38;;;1.45;100.00
10097;BME280;5087;42.662;23.466;2022-11-10T06:45:09;96235.00;;;1.61;100.00
10097;BME280;5087;42.662;23.466;2022-11-10T06:47:59;96241.50;;;1.65;100.00
10097;BME280;5087;42.662;23.466;2022-11-10T06:50:47;96236.91;;;1.77;100.00
10097;BME280;5087;42.662;23.466;2022-11-10T06:53:33;96255.66;;;1.77;100.00
10097;BME280;5087;42.662;23.466;2022-11-10T06:56:18;96226.69;;;2.03;100.00
10097;BME280;5087;42.662;23.466;2022-11-10T06:59:04;96241.78;;;2.26;100.00
10097;BME280;5087;42.662;23.466;2022-11-10T07:01:50;96245.53;;;2.25;100.00
10097;BME280;5087;42.662;23.466;2022-11-10T07:04:39;96236.44;;;2.26;100.00
10097;BME280;5087;42.662;23.466;2022-11-10T07:07:27;96236.88;;;2.06;100.00
10097;BME280;5087;42.662;23.466;2022-11-10T07:10:13;96234.75;;;2.37;100.00
10097;BME280;5087;42.662;23.466;2022-11-10T07:13:00;96247.00;;;2.67;100.00
10097;BME280;5087;42.662;23.466;2022-11-10T07:15:47;96249.94;;;2.48;100.00
10097;BME280;5087;42.662;23.466;2022-11-10T07:18:33;96231.47;;;2.35;100.00
10097;BME280;5087;42.662;23.466;2022-11-10T07:21:19;96249.09;;;2.65;100.00
10097;BME280;5087;42.662;23.466;2022-11-10T07:24:08;96223.91;;;2.66;100.00
10097;BME280;5087;42.662;23.466;2022-11-10T07:26:53;96233.81;;;2.82;100.00
10097;BME280;5087;42.662;23.466;2022-11-10T07:29:39;96240.63;;;3.07;100.00
10097;BME280;5087;42.662;23.466;2022-11-10T07:32:25;96258.47;;;3.19;100.00
10097;BME280;5087;42.662;23.466;2022-11-10T07:35:11;96249.19;;;3.26;100.00
10097;BME280;5087;42.662;23.466;2022-11-10T07:38:00;96256.81;;;3.57;100.00
10097;BME280;5087;42.662;23.466;2022-11-10T07:40:49;96251.56;;;3.67;100.00
10097;BME280;5087;42.662;23.466;2022-11-10T07:43:36;96255.13;;;3.73;100.00
10097;BME280;5087;42.662;23.466;2022-11-10T07:46:21;96247.13;;;3.78;100.00
10097;BME280;5087;42.662;23.466;2022-11-10T07:51:41;96259.94;;;3.93;100.00
10097;BME280;5087;42.662;23.466;2022-11-10T07:54:27;96239.09;;;4.05;100.00
10097;BME280;5087;42.662;23.466;2022-11-10T07:57:15;96222.78;;;4.12;100.00
10097;BME280;5087;42.662;23.466;2022-11-10T08:00:01;96247.88;;;4.55;100.00
10097;BME280;5087;42.662;23.466;2022-11-10T08:02:47;96248.97;;;4.27;100.00
10097;BME280;5087;42.662;23.466;2022-11-10T08:05:33;96233.16;;;4.63;100.00
10097;BME280;5087;42.662;23.466;2022-11-10T08:08:19;96236.59;;;4.96;100.00
10097;BME280;5087;42.662;23.466;2022-11-10T08:11:05;96253.69;;;4.80;100.00
10097;BME280;5087;42.662;23.466;2022-11-10T08:13:52;96226.59;;;4.91;100.00
10097;BME280;5087;42.662;23.466;2022-11-10T08:16:38;96239.38;;;5.12;100.00
10097;BME280;5087;42.662;23.466;2022-11-10T08:19:24;96242.84;;;5.07;100.00
10097;BME280;5087;42.662;23.466;2022-11-10T08:22:10;96246.97;;;5.78;100.00
10097;BME280;5087;42.662;23.466;2022-11-10T08:24:57;96257.22;;;5.86;100.00
10097;BME280;5087;42.662;23.466;2022-11-10T08:27:43;96256.44;;;5.91;100.00
10097;BME280;5087;42.662;23.466;2022-11-10T08:30:31;96241.28;;;5.69;100.00
10097;BME280;5087;42.662;23.466;2022-11-10T08:33:18;96233.88;;;5.44;100.00
10097;BME280;5087;42.662;23.466;2022-11-10T08:36:05;96261.28;;;5.84;100.00
10097;BME280;5087;42.662;23.466;2022-11-10T08:38:51;96254.31;;;5.93;100.00
10097;BME280;5087;42.662;23.466;2022-11-10T08:41:37;96250.22;;;5.85;100.00
10097;BME280;5087;42.662;23.466;2022-11-10T08:44:23;96241.84;;;5.77;100.00
10097;BME280;5087;42.662;23.466;2022-11-10T08:47:10;96249.00;;;6.24;100.00
10097;BME280;5087;42.662;23.466;2022-11-10T08:49:56;96257.66;;;6.73;100.00
10097;BME280;5087;42.662;23.466;2022-11-10T08:52:42;96240.31;;;7.25;100.00
10097;BME280;5087;42.662;23.466;2022-11-10T08:55:28;96257.66;;;6.99;100.00
10097;BME280;5087;42.662;23.466;2022-11-10T08:58:16;96256.03;;;6.56;100.00
10097;BME280;5087;42.662;23.466;2022-11-10T09:01:06;96264.94;;;6.67;100.00
10097;BME280;5087;42.662;23.466;2022-11-10T09:03:54;96261.44;;;6.82;100.00
10097;BME280;5087;42.662;23.466;2022-11-10T09:06:40;96244.69;;;7.16;100.00
10097;BME280;5087;42.662;23.466;2022-11-10T09:09:26;96247.59;;;7.40;100.00
10097;BME280;5087;42.662;23.466;2022-11-10T09:12:12;96252.50;;;7.99;100.00
10097;BME280;5087;42.662;23.466;2022-11-10T09:14:58;96257.69;;;8.80;100.00
10097;BME280;5087;42.662;23.466;2022-11-10T09:17:45;96256.53;;;8.51;100.00
10097;BME280;5087;42.662;23.466;2022-11-10T09:20:34;96217.09;;;8.75;100.00
10097;BME280;5087;42.662;23.466;2022-11-10T09:23:21;96229.94;;;9.23;100.00
10097;BME280;5087;42.662;23.466;2022-11-10T09:26:08;96229.66;;;9.48;100.00
10097;BME280;5087;42.662;23.466;2022-11-10T09:28:54;96228.44;;;9.60;100.00
10097;BME280;5087;42.662;23.466;2022-11-10T09:31:42;96196.59;;;8.98;100.00
10097;BME280;5087;42.662;23.466;2022-11-10T09:34:29;96215.88;;;8.91;100.00
10097;BME280;5087;42.662;23.466;2022-11-10T09:37:16;96156.28;;;8.67;100.00
10097;BME280;5087;42.662;23.466;2022-11-10T09:40:03;96187.16;;;9.19;100.00
10097;BME280;5087;42.662;23.466;2022-11-10T09:42:53;96193.25;;;9.55;100.00
10097;BME280;5087;42.662;23.466;2022-11-10T09:45:43;96207.63;;;9.55;100.00
10097;BME280;5087;42.662;23.466;2022-11-10T09:48:34;96199.75;;;9.78;100.00
10097;BME280;5087;42.662;23.466;2022-11-10T09:51:24;96186.50;;;9.95;100.00
10097;BME280;5087;42.662;23.466;2022-11-10T09:54:25;96187.53;;;10.00;100.00
10097;BME280;5087;42.662;23.466;2022-11-10T09:57:12;96167.13;;;9.83;100.00
10097;BME280;5087;42.662;23.466;2022-11-10T09:59:59;96183.06;;;10.28;100.00
10097;BME280;5087;42.662;23.466;2022-11-10T10:02:50;96154.88;;;9.86;100.00
10097;BME280;5087;42.662;23.466;2022-11-10T10:05:47;96163.84;;;10.24;100.00
10097;BME280;5087;42.662;23.466;2022-11-10T10:08:44;96183.16;;;10.04;100.00
10097;BME280;5087;42.662;23.466;2022-11-10T10:11:45;96179.22;;;10.67;100.00
10097;BME280;5087;42.662;23.466;2022-11-10T10:14:55;96161.75;;;10.87;100.00
10097;BME280;5087;42.662;23.466;2022-11-10T10:17:52;96172.84;;;11.19;100.00
10097;BME280;5087;42.662;23.466;2022-11-10T10:20:54;96171.53;;;11.02;100.00
10097;BME280;5087;42.662;23.466;2022-11-10T10:23:49;96147.69;;;11.13;100.00
10097;BME280;5087;42.662;23.466;2022-11-10T10:26:40;96165.56;;;11.98;100.00
10097;BME280;5087;42.662;23.466;2022-11-10T10:29:31;96124.09;;;12.15;100.00
10097;BME280;5087;42.662;23.466;2022-11-10T10:32:22;96150.19;;;12.84;100.00
10097;BME280;5087;42.662;23.466;2022-11-10T10:35:12;96143.47;;;13.71;100.00
10097;BME280;5087;42.662;23.466;2022-11-10T10:37:58;96143.50;;;13.30;100.00
10097;BME280;5087;42.662;23.466;2022-11-10T10:40:49;96151.47;;;13.18;100.00
10097;BME280;5087;42.662;23.466;2022-11-10T10:43:45;96162.09;;;12.65;100.00
10097;BME280;5087;42.662;23.466;2022-11-10T10:46:42;96124.38;;;13.71;100.00
10097;BME280;5087;42.662;23.466;2022-11-10T10:49:30;96141.03;;;13.60;100.00
10097;BME280;5087;42.662;23.466;2022-11-10T10:52:19;96127.03;;;13.04;100.00
10097;BME280;5087;42.662;23.466;2022-11-10T10:55:11;96122.47;;;13.80;100.00
10097;BME280;5087;42.662;23.466;2022-11-10T10:57:59;96130.03;;;14.01;100.00
10097;BME280;5087;42.662;23.466;2022-11-10T11:00:51;96136.63;;;13.82;100.00
10097;BME280;5087;42.662;23.466;2022-11-10T11:03:40;96103.56;;;14.28;100.00
10097;BME280;5087;42.662;23.466;2022-11-10T11:06:27;96106.41;;;14.57;100.00
10097;BME280;5087;42.662;23.466;2022-11-10T11:09:16;96113.16;;;14.51;100.00
10097;BME280;5087;42.662;23.466;2022-11-10T11:12:06;96115.25;;;14.46;100.00
10097;BME280;5087;42.662;23.466;2022-11-10T11:15:21;96099.22;;;14.09;100.00
10097;BME280;5087;42.662;23.466;2022-11-10T11:18:16;96116.41;;;14.09;100.00
10097;BME280;5087;42.662;23.466;2022-11-10T11:21:08;96089.59;;;13.94;100.00
10097;BME280;5087;42.662;23.466;2022-11-10T11:24:15;96083.47;;;13.71;100.00
10097;BME280;5087;42.662;23.466;2022-11-10T11:27:11;96087.00;;;14.06;100.00
10097;BME280;5087;42.662;23.466;2022-11-10T11:30:09;96087.91;;;14.72;100.00
10097;BME280;5087;42.662;23.466;2022-11-10T11:33:24;96100.59;;;15.24;100.00
10097;BME280;5087;42.662;23.466;2022-11-10T11:36:19;96093.25;;;14.07;100.00
10097;BME280;5087;42.662;23.466;2022-11-10T11:39:20;96041.56;;;13.84;100.00
10097;BME280;5087;42.662;23.466;2022-11-10T11:42:16;96064.31;;;14.41;100.00
10097;BME280;5087;42.662;23.466;2022-11-10T11:45:16;96077.13;;;14.76;100.00
10097;BME280;5087;42.662;23.466;2022-11-10T11:48:28;96093.28;;;14.98;100.00
10097;BME280;5087;42.662;23.466;2022-11-10T11:51:24;96040.44;;;15.15;100.00
10097;BME280;5087;42.662;23.466;2022-11-10T11:54:23;96076.38;;;15.05;100.00
10097;BME280;5087;42.662;23.466;2022-11-10T11:57:19;96082.66;;;14.14;100.00
10097;BME280;5087;42.662;23.466;2022-11-10T12:00:12;96067.63;;;14.64;100.00
10097;BME280;5087;42.662;23.466;2022-11-10T12:03:15;96086.22;;;15.36;100.00
10097;BME280;5087;42.662;23.466;2022-11-10T12:06:22;96060.91;;;14.53;100.00
10097;BME280;5087;42.662;23.466;2022-11-10T12:09:17;96076.19;;;14.45;100.00
10097;BME280;5087;42.662;23.466;2022-11-10T12:12:18;96090.03;;;15.44;100.00
10097;BME280;5087;42.662;23.466;2022-11-10T12:15:20;96068.78;;;15.71;100.00
10097;BME280;5087;42.662;23.466;2022-11-10T12:18:15;96091.56;;;15.54;100.00
10097;BME280;5087;42.662;23.466;2022-11-10T12:21:24;96038.63;;;16.01;100.00
10097;BME280;5087;42.662;23.466;2022-11-10T12:24:25;96052.06;;;16.27;100.00
10097;BME280;5087;42.662;23.466;2022-11-10T12:27:22;96079.09;;;16.50;100.00
10097;BME280;5087;42.662;23.466;2022-11-10T12:30:12;96055.81;;;15.59;100.00
10097;BME280;5087;42.662;23.466;2022-11-10T12:33:03;96072.34;;;15.41;100.00
10097;BME280;5087;42.662;23.466;2022-11-10T12:35:54;96029.53;;;13.68;100.00
10097;BME280;5087;42.662;23.466;2022-11-10T12:38:47;96081.56;;;13.98;100.00
10097;BME280;5087;42.662;23.466;2022-11-10T12:41:41;96061.78;;;14.01;100.00
10097;BME280;5087;42.662;23.466;2022-11-10T12:44:31;96084.69;;;14.61;100.00
10097;BME280;5087;42.662;23.466;2022-11-10T12:47:27;96071.16;;;14.82;100.00
10097;BME280;5087;42.662;23.466;2022-11-10T12:50:23;96087.63;;;14.38;100.00
10097;BME280;5087;42.662;23.466;2022-11-10T12:53:18;96081.06;;;13.87;100.00
10097;BME280;5087;42.662;23.466;2022-11-10T12:56:16;96087.41;;;14.70;100.00
10097;BME280;5087;42.662;23.466;2022-11-10T12:59:20;96083.28;;;15.41;100.00
10097;BME280;5087;42.662;23.466;2022-11-10T13:02:20;96091.72;;;15.78;100.00
10097;BME280;5087;42.662;23.466;2022-11-10T13:11:35;96049.31;;;15.93;100.00
10097;BME280;5087;42.662;23.466;2022-11-10T13:14:27;96064.31;;;16.08;100.00
10097;BME280;5087;42.662;23.466;2022-11-10T13:17:51;96041.06;;;15.72;100.00
10097;BME280;5087;42.662;23.466;2022-11-10T13:20:51;96075.41;;;15.61;100.00
10097;BME280;5087;42.662;23.466;2022-11-10T13:27:00;96074.66;;;16.03;100.00
10097;BME280;5087;42.662;23.466;2022-11-10T13:29:54;96062.47;;;15.70;100.00
10097;BME280;5087;42.662;23.466;2022-11-10T13:32:41;96047.28;;;15.81;100.00
10097;BME280;5087;42.662;23.466;2022-11-10T13:35:50;96093.63;;;14.88;100.00
10097;BME280;5087;42.662;23.466;2022-11-10T13:38:40;96098.03;;;14.71;100.00
10097;BME280;5087;42.662;23.466;2022-11-10T13:41:29;96080.31;;;14.86;100.00
10097;BME280;5087;42.662;23.466;2022-11-10T13:44:23;96104.31;;;15.11;100.00
10097;BME280;5087;42.662;23.466;2022-11-10T13:47:46;96108.31;;;15.22;100.00
10097;BME280;5087;42.662;23.466;2022-11-10T13:50:43;96048.50;;;15.12;100.00
10097;BME280;5087;42.662;23.466;2022-11-10T13:53:42;96072.41;;;14.94;100.00
10097;BME280;5087;42.662;23.466;2022-11-10T13:56:50;96095.22;;;14.98;100.00
10097;BME280;5087;42.662;23.466;2022-11-10T13:59:48;96067.06;;;14.41;100.00
10097;BME280;5087;42.662;23.466;2022-11-10T14:02:57;96102.44;;;14.29;100.00
10097;BME280;5087;42.662;23.466;2022-11-10T14:06:02;96083.13;;;14.43;100.00
10097;BME280;5087;42.662;23.466;2022-11-10T14:08:53;96086.03;;;14.20;100.00
10097;BME280;5087;42.662;23.466;2022-11-10T14:11:43;96100.84;;;14.01;100.00
10097;BME280;5087;42.662;23.466;2022-11-10T14:14:38;96070.44;;;13.50;100.00
10097;BME280;5087;42.662;23.466;2022-11-10T14:17:33;96109.91;;;13.61;100.00
10097;BME280;5087;42.662;23.466;2022-11-10T14:20:26;96111.53;;;13.63;100.00
10097;BME280;5087;42.662;23.466;2022-11-10T14:23:18;96091.94;;;13.43;100.00
10097;BME280;5087;42.662;23.466;2022-11-10T14:26:13;96112.91;;;13.42;100.00
10097;BME280;5087;42.662;23.466;2022-11-10T14:29:25;96113.44;;;13.53;100.00
10097;BME280;5087;42.662;23.466;2022-11-10T14:32:14;96087.19;;;13.26;100.00
10097;BME280;5087;42.662;23.466;2022-11-10T14:35:03;96100.00;;;13.17;100.00
10097;BME280;5087;42.662;23.466;2022-11-10T14:37:49;96127.78;;;13.27;100.00
10097;BME280;5087;42.662;23.466;2022-11-10T14:40:40;96102.50;;;13.04;100.00
10097;BME280;5087;42.662;23.466;2022-11-10T14:43:28;96089.25;;;12.80;100.00
10097;BME280;5087;42.662;23.466;2022-11-10T14:46:15;96066.50;;;12.53;100.00
10097;BME280;5087;42.662;23.466;2022-11-10T14:49:10;96070.03;;;12.45;100.00
10097;BME280;5087;42.662;23.466;2022-11-10T14:51:58;96062.28;;;12.38;100.00
10097;BME280;5087;42.662;23.466;2022-11-10T14:54:45;96097.25;;;12.45;100.00
10097;BME280;5087;42.662;23.466;2022-11-10T14:57:31;96102.63;;;12.36;100.00
10097;BME280;5087;42.662;23.466;2022-11-10T15:00:22;96104.78;;;12.25;100.00
10097;BME280;5087;42.662;23.466;2022-11-10T15:03:13;96124.53;;;12.31;100.00
10097;BME280;5087;42.662;23.466;2022-11-10T15:06:02;96105.91;;;12.01;100.00
10097;BME280;5087;42.662;23.466;2022-11-10T15:08:50;96122.53;;;11.86;100.00
10097;BME280;5087;42.662;23.466;2022-11-10T15:11:47;96093.00;;;11.56;100.00